Time;durP1;ratioP1;P1;durP2;ratioP2;P2;SDS_P1;SDS_P2;PMS_P1;PMS_P2;Temp;Humidity;BMP_temperature;BMP_pressure;BME280_temperature;BME280_humidity;BME280_pressure;Samples;Min_cycle;Max_cycle;Signal;HPM_P1;HPM_P2
2023/07/04 00:00:38;;;;;;;6.97;2.57;;;;;;;;;;5043526;28;20397;-65
2023/07/04 00:03:03;;;;;;;8.40;2.75;;;;;;;;;;5039765;28;20467;-64
2023/07/04 00:05:28;;;;;;;7.43;2.60;;;;;;;;;;5044872;28;20028;-64
2023/07/04 00:07:53;;;;;;;8.18;2.65;;;;;;;;;;5043119;28;20365;-63
2023/07/04 00:10:20;;;;;;;10.15;2.72;;;;;;;;;;5047337;28;20056;-64
2023/07/04 00:12:45;;;;;;;8.07;2.58;;;;;;;;;;5048788;28;20107;-63
2023/07/04 00:15:11;;;;;;;8.00;2.33;;;;;;;;;;5044305;28;20079;-64
2023/07/04 00:17:36;;;;;;;6.78;2.13;;;;;;;;;;5045244;28;20549;-63
2023/07/04 00:20:03;;;;;;;6.25;2.22;;;;;;;;;;5046935;28;20032;-63
2023/07/04 00:22:28;;;;;;;8.30;2.65;;;;;;;;;;5052042;28;20501;-63
2023/07/04 00:24:56;;;;;;;9.23;2.70;;;;;;;;;;5049844;28;20014;-63
2023/07/04 00:27:23;;;;;;;7.65;2.47;;;;;;;;;;5047449;28;20052;-64
2023/07/04 00:29:50;;;;;;;5.85;2.22;;;;;;;;;;5044717;28;20021;-65
2023/07/04 00:32:15;;;;;;;8.50;2.70;;;;;;;;;;5043853;28;20466;-64
2023/07/04 00:34:45;;;;;;;6.20;2.17;;;;;;;;;;5051603;28;20116;-64
2023/07/04 00:37:10;;;;;;;6.20;2.28;;;;;;;;;;5044515;28;20017;-64
2023/07/04 00:39:37;;;;;;;7.57;2.60;;;;;;;;;;5051105;28;20051;-63
2023/07/04 00:42:04;;;;;;;6.88;2.20;;;;;;;;;;5048296;28;20024;-64
2023/07/04 00:44:34;;;;;;;6.72;2.03;;;;;;;;;;5051781;28;20025;-63
2023/07/04 00:47:06;;;;;;;6.63;2.75;;;;;;;;;;5046744;28;20072;-62
2023/07/04 00:49:42;;;;;;;7.85;2.65;;;;;;;;;;5050206;28;20024;-62
2023/07/04 00:52:15;;;;;;;7.63;2.45;;;;;;;;;;5045787;28;20014;-62
2023/07/04 00:54:43;;;;;;;7.32;2.53;;;;;;;;;;5048668;28;20043;-63
2023/07/04 00:57:09;;;;;;;7.78;2.30;;;;;;;;;;5049193;28;20515;-64
2023/07/04 00:59:43;;;;;;;6.45;2.20;;;;;;;;;;5042711;28;20688;-63
2023/07/04 01:02:10;;;;;;;7.45;2.28;;;;;;;;;;5043866;28;20029;-63
2023/07/04 01:04:35;;;;;;;7.57;2.30;;;;;;;;;;5046312;28;20108;-63
2023/07/04 01:07:09;;;;;;;7.03;2.90;;;;;;;;;;5037885;28;20594;-63
2023/07/04 01:09:35;;;;;;;9.25;2.85;;;;;;;;;;5037302;28;20021;-64
2023/07/04 01:12:02;;;;;;;7.80;2.40;;;;;;;;;;5045084;28;20024;-63
2023/07/04 01:14:27;;;;;;;7.82;2.50;;;;;;;;;;5033867;28;20292;-61
2023/07/04 01:16:53;;;;;;;6.80;2.40;;;;;;;;;;5032581;28;20051;-64
2023/07/04 01:19:30;;;;;;;6.30;2.63;;;;;;;;;;5031589;28;20040;-65
2023/07/04 01:22:04;;;;;;;8.27;2.63;;;;;;;;;;5035024;28;20021;-63
2023/07/04 01:24:34;;;;;;;8.15;2.30;;;;;;;;;;5043530;28;20021;-64
2023/07/04 01:26:59;;;;;;;6.53;2.38;;;;;;;;;;5039543;28;20051;-62
2023/07/04 01:29:25;;;;;;;7.75;2.45;;;;;;;;;;5049767;28;20024;-62
2023/07/04 01:31:50;;;;;;;6.50;2.03;;;;;;;;;;5043167;28;20029;-64
2023/07/04 01:34:18;;;;;;;7.23;2.47;;;;;;;;;;5048479;28;20163;-63
2023/07/04 01:36:44;;;;;;;7.38;2.50;;;;;;;;;;5048127;28;20162;-63
2023/07/04 01:39:15;;;;;;;7.72;2.47;;;;;;;;;;5045537;28;20029;-62
2023/07/04 01:41:40;;;;;;;6.47;2.08;;;;;;;;;;5038181;28;20063;-63
2023/07/04 01:44:07;;;;;;;10.38;2.50;;;;;;;;;;5048536;28;20512;-64
2023/07/04 01:46:32;;;;;;;;;;;;;;;;;;5040568;28;20055;-61
2023/07/04 01:48:57;;;;;;;7.15;2.47;;;;;;;;;;5046390;28;20008;-63
2023/07/04 01:51:23;;;;;;;9.35;2.15;;;;;;;;;;5047609;28;20025;-64
2023/07/04 01:53:48;;;;;;;6.65;2.00;;;;;;;;;;5045978;28;20103;-63
2023/07/04 01:56:14;;;;;;;6.25;2.20;;;;;;;;;;5057085;28;20025;-64
2023/07/04 01:58:39;;;;;;;6.25;2.75;;;;;;;;;;5041392;28;20563;-62
2023/07/04 02:01:04;;;;;;;7.80;2.58;;;;;;;;;;5045137;28;20035;-63
2023/07/04 02:03:29;;;;;;;7.37;2.30;;;;;;;;;;5044754;28;20044;-63
2023/07/04 02:05:56;;;;;;;7.93;2.33;;;;;;;;;;5045718;28;20037;-66
2023/07/04 02:08:21;;;;;;;8.60;2.63;;;;;;;;;;5051110;28;20017;-63
2023/07/04 02:10:46;;;;;;;7.80;2.42;;;;;;;;;;5046735;28;20072;-61
2023/07/04 02:13:13;;;;;;;6.97;2.23;;;;;;;;;;5050117;28;20488;-63
2023/07/04 02:15:38;;;;;;;8.38;2.70;;;;;;;;;;5041093;28;20800;-63
2023/07/04 02:18:04;;;;;;;9.10;2.50;;;;;;;;;;5043509;28;20017;-63
2023/07/04 02:20:29;;;;;;;7.87;2.23;;;;;;;;;;5039576;28;20064;-62
2023/07/04 02:22:54;;;;;;;9.20;2.20;;;;;;;;;;5048490;28;20503;-63
2023/07/04 02:25:19;;;;;;;8.35;2.45;;;;;;;;;;5050715;28;20548;-62
2023/07/04 02:27:44;;;;;;;7.57;2.22;;;;;;;;;;5048450;28;20071;-62
2023/07/04 02:30:09;;;;;;;7.28;2.47;;;;;;;;;;5045092;28;20021;-63
2023/07/04 02:32:35;;;;;;;6.03;2.30;;;;;;;;;;5046404;28;20060;-63
2023/07/04 02:35:00;;;;;;;7.37;2.43;;;;;;;;;;5049677;28;20013;-62
2023/07/04 02:37:25;;;;;;;7.17;2.30;;;;;;;;;;5047716;28;20455;-63
2023/07/04 02:39:52;;;;;;;7.60;2.35;;;;;;;;;;5044584;28;20468;-63
2023/07/04 02:42:17;;;;;;;;;;;;;;;;;;5046865;28;20370;-63
2023/07/04 02:44:42;;;;;;;4.80;1.98;;;;;;;;;;5050587;28;19920;-64
2023/07/04 02:47:08;;;;;;;6.23;2.40;;;;;;;;;;5047840;28;20091;-62
2023/07/04 02:49:35;;;;;;;7.83;2.20;;;;;;;;;;5050548;28;20523;-61
2023/07/04 02:52:00;;;;;;;8.48;2.55;;;;;;;;;;5045000;28;20063;-62
2023/07/04 02:54:25;;;;;;;6.77;2.03;;;;;;;;;;5049887;28;20049;-64
2023/07/04 02:56:50;;;;;;;6.65;2.10;;;;;;;;;;5049268;28;20033;-63
2023/07/04 02:59:15;;;;;;;6.35;2.30;;;;;;;;;;5049859;28;20100;-62
2023/07/04 03:01:41;;;;;;;8.55;2.47;;;;;;;;;;5045172;28;20025;-63
2023/07/04 03:04:06;;;;;;;5.85;2.20;;;;;;;;;;5049490;28;20021;-63
2023/07/04 03:06:31;;;;;;;6.05;2.10;;;;;;;;;;5044383;28;20032;-61
2023/07/04 03:08:56;;;;;;;7.00;2.30;;;;;;;;;;5049540;28;20043;-63
2023/07/04 03:11:22;;;;;;;6.35;2.20;;;;;;;;;;5049341;28;20025;-63
2023/07/04 03:13:47;;;;;;;7.93;2.53;;;;;;;;;;5048872;28;20484;-63
2023/07/04 03:16:12;;;;;;;6.47;2.20;;;;;;;;;;5047281;28;20446;-62
2023/07/04 03:18:37;;;;;;;5.97;2.55;;;;;;;;;;5037306;28;20420;-62
2023/07/04 03:21:02;;;;;;;7.10;2.20;;;;;;;;;;5048766;28;20085;-62
2023/07/04 03:23:27;;;;;;;6.40;2.17;;;;;;;;;;5032843;28;20029;-62
2023/07/04 03:25:52;;;;;;;6.28;2.20;;;;;;;;;;5042944;28;20116;-63
2023/07/04 03:28:18;;;;;;;5.63;2.08;;;;;;;;;;5044658;28;20033;-61
2023/07/04 03:30:43;;;;;;;7.67;2.47;;;;;;;;;;5046552;28;20477;-63
2023/07/04 03:33:08;;;;;;;6.13;2.47;;;;;;;;;;5038796;28;20469;-63
2023/07/04 03:35:35;;;;;;;5.53;2.10;;;;;;;;;;5048178;28;20030;-62
2023/07/04 03:38:00;;;;;;;6.57;2.53;;;;;;;;;;5045076;28;20017;-63
2023/07/04 03:40:26;;;;;;;7.93;2.20;;;;;;;;;;5049724;28;20075;-61
2023/07/04 03:42:51;;;;;;;6.43;2.30;;;;;;;;;;5047813;28;20105;-64
2023/07/04 03:45:16;;;;;;;5.70;2.22;;;;;;;;;;5049803;28;20100;-61
2023/07/04 03:47:41;;;;;;;6.17;2.17;;;;;;;;;;5049585;28;20059;-61
2023/07/04 03:50:06;;;;;;;6.22;2.05;;;;;;;;;;5049707;28;20031;-62
2023/07/04 03:52:32;;;;;;;8.43;2.50;;;;;;;;;;5047097;28;20112;-63
2023/07/04 03:54:57;;;;;;;7.20;2.47;;;;;;;;;;5051391;28;20464;-61
2023/07/04 03:57:22;;;;;;;7.20;2.30;;;;;;;;;;5056651;28;20448;-62
2023/07/04 03:59:47;;;;;;;6.67;2.23;;;;;;;;;;5053034;28;20021;-63
2023/07/04 04:02:13;;;;;;;6.67;2.30;;;;;;;;;;5052812;28;20099;-61
2023/07/04 04:04:39;;;;;;;7.15;2.10;;;;;;;;;;5061304;28;20519;-62
2023/07/04 04:07:07;;;;;;;7.38;2.30;;;;;;;;;;5053947;28;20040;-63
2023/07/04 04:09:32;;;;;;;6.18;2.15;;;;;;;;;;5054183;28;20017;-62
2023/07/04 04:11:57;;;;;;;5.95;1.98;;;;;;;;;;5052231;28;20051;-63
2023/07/04 04:14:22;;;;;;;5.32;2.20;;;;;;;;;;5052699;28;20476;-62
2023/07/04 04:16:49;;;;;;;6.22;2.00;;;;;;;;;;5051253;28;20025;-62
2023/07/04 04:19:14;;;;;;;5.43;2.17;;;;;;;;;;5056604;28;20070;-63
2023/07/04 04:21:39;;;;;;;4.60;1.80;;;;;;;;;;5048149;28;20020;-63
2023/07/04 04:24:04;;;;;;;6.80;2.37;;;;;;;;;;5038013;28;20025;-64
2023/07/04 04:26:37;;;;;;;5.00;2.00;;;;;;;;;;5039868;28;20494;-62
2023/07/04 04:29:03;;;;;;;5.57;2.20;;;;;;;;;;5056192;28;20108;-61
2023/07/04 04:31:28;;;;;;;7.75;2.33;;;;;;;;;;5047707;28;20055;-61
2023/07/04 04:33:54;;;;;;;5.65;2.03;;;;;;;;;;5048840;28;20025;-63
2023/07/04 04:36:20;;;;;;;6.65;2.10;;;;;;;;;;5044853;28;20021;-62
2023/07/04 04:38:45;;;;;;;7.38;2.55;;;;;;;;;;5051085;28;20341;-62
2023/07/04 04:41:12;;;;;;;5.20;2.00;;;;;;;;;;5046763;28;20021;-62
2023/07/04 04:43:37;;;;;;;6.20;1.95;;;;;;;;;;5040978;28;20025;-62
2023/07/04 04:46:03;;;;;;;5.07;2.05;;;;;;;;;;5046493;28;20029;-63
2023/07/04 04:48:35;;;;;;;5.47;1.92;;;;;;;;;;5050444;28;20036;-62
2023/07/04 04:51:00;;;;;;;;;;;;;;;;;;5038500;28;20044;-65
2023/07/04 04:53:25;;;;;;;5.85;2.10;;;;;;;;;;5042983;28;20416;-61
2023/07/04 04:55:51;;;;;;;8.90;2.30;;;;;;;;;;5051439;28;20121;-64
2023/07/04 04:58:16;;;;;;;7.03;2.40;;;;;;;;;;5045138;28;20056;-62
2023/07/04 05:00:44;;;;;;;7.22;2.22;;;;;;;;;;5051534;28;20035;-62
2023/07/04 05:03:10;;;;;;;6.97;2.28;;;;;;;;;;5033843;28;20032;-64
2023/07/04 05:05:35;;;;;;;8.52;2.50;;;;;;;;;;5037436;28;20029;-63
2023/07/04 05:08:00;;;;;;;8.07;2.60;;;;;;;;;;5035530;28;20499;-64
2023/07/04 05:10:25;;;;;;;6.37;2.63;;;;;;;;;;5037880;28;20078;-63
2023/07/04 05:12:50;;;;;;;7.22;2.67;;;;;;;;;;5034553;28;20032;-65
2023/07/04 05:15:16;;;;;;;7.40;2.60;;;;;;;;;;5036480;28;20056;-63
2023/07/04 05:17:41;;;;;;;6.20;2.40;;;;;;;;;;5034617;28;20040;-63
2023/07/04 05:20:06;;;;;;;7.13;2.43;;;;;;;;;;5037266;28;20485;-62
2023/07/04 05:22:33;;;;;;;5.93;2.03;;;;;;;;;;5046865;28;20420;-64
2023/07/04 05:24:58;;;;;;;6.68;2.35;;;;;;;;;;5044808;28;20032;-61
2023/07/04 05:27:23;;;;;;;10.07;2.77;;;;;;;;;;5043791;28;20402;-63
2023/07/04 05:29:48;;;;;;;5.97;2.30;;;;;;;;;;5046383;28;20021;-62
2023/07/04 05:32:14;;;;;;;8.00;2.30;;;;;;;;;;5048142;28;20460;-64
2023/07/04 05:34:39;;;;;;;6.67;2.47;;;;;;;;;;5050088;28;20023;-64
2023/07/04 05:37:04;;;;;;;6.47;2.20;;;;;;;;;;5052480;28;20479;-63
2023/07/04 05:39:29;;;;;;;6.43;2.53;;;;;;;;;;5052480;28;20096;-63
2023/07/04 05:41:54;;;;;;;6.63;2.33;;;;;;;;;;5051597;28;20025;-63
2023/07/04 05:44:21;;;;;;;6.60;2.63;;;;;;;;;;5048463;28;20082;-63
2023/07/04 05:46:46;;;;;;;6.97;2.55;;;;;;;;;;5051361;28;20013;-64
2023/07/04 05:49:11;;;;;;;5.43;2.25;;;;;;;;;;5049564;28;20491;-63
2023/07/04 05:51:36;;;;;;;6.75;2.45;;;;;;;;;;5043203;28;20033;-62
2023/07/04 05:54:01;;;;;;;10.50;2.97;;;;;;;;;;5035550;28;20048;-63
2023/07/04 05:56:28;;;;;;;7.67;2.87;;;;;;;;;;5047093;28;20032;-62
2023/07/04 05:58:59;;;;;;;5.15;2.30;;;;;;;;;;5044798;28;20017;-63
2023/07/04 06:01:27;;;;;;;7.32;2.58;;;;;;;;;;5050296;28;20550;-63
2023/07/04 06:03:52;;;;;;;8.07;2.97;;;;;;;;;;5050733;28;20025;-64
2023/07/04 06:06:30;;;;;;;11.02;2.30;;;;;;;;;;5046009;28;20029;-65
2023/07/04 06:08:56;;;;;;;6.25;2.55;;;;;;;;;;5046900;28;20025;-63
2023/07/04 06:11:22;;;;;;;6.75;2.65;;;;;;;;;;5044345;28;20100;-63
2023/07/04 06:13:48;;;;;;;6.80;2.80;;;;;;;;;;5045816;28;20013;-63
2023/07/04 06:16:13;;;;;;;8.32;2.90;;;;;;;;;;5030716;28;20568;-62
2023/07/04 06:18:38;;;;;;;7.47;2.70;;;;;;;;;;5030972;28;20029;-64
2023/07/04 06:21:04;;;;;;;7.10;2.60;;;;;;;;;;5045742;28;20067;-63
2023/07/04 06:23:29;;;;;;;5.82;2.35;;;;;;;;;;5043183;28;20029;-64
2023/07/04 06:25:57;;;;;;;9.10;2.93;;;;;;;;;;5039461;28;20053;-63
2023/07/04 06:28:23;;;;;;;9.38;3.20;;;;;;;;;;5045022;28;20430;-64
2023/07/04 06:30:48;;;;;;;9.97;3.00;;;;;;;;;;5049698;28;20045;-62
2023/07/04 06:33:13;;;;;;;6.72;2.83;;;;;;;;;;5036778;28;20903;-63
2023/07/04 06:35:42;;;;;;;6.77;2.90;;;;;;;;;;5045667;28;20045;-63
2023/07/04 06:38:10;;;;;;;9.75;3.10;;;;;;;;;;5040605;28;20025;-64
2023/07/04 06:40:35;;;;;;;7.38;2.90;;;;;;;;;;5039160;28;20029;-64
2023/07/04 06:43:01;;;;;;;8.90;3.58;;;;;;;;;;5044299;28;20436;-63
2023/07/04 06:45:26;;;;;;;7.43;3.05;;;;;;;;;;5030806;28;20021;-64
2023/07/04 06:47:51;;;;;;;9.50;3.27;;;;;;;;;;5033076;28;20017;-62
2023/07/04 06:50:16;;;;;;;8.38;3.10;;;;;;;;;;5034690;28;20472;-63
2023/07/04 06:52:42;;;;;;;7.90;3.08;;;;;;;;;;5035870;28;20018;-62
2023/07/04 06:55:07;;;;;;;7.15;2.92;;;;;;;;;;5036028;28;20057;-64
2023/07/04 06:57:32;;;;;;;7.43;3.20;;;;;;;;;;5041827;28;20120;-63
2023/07/04 06:59:57;;;;;;;8.38;3.42;;;;;;;;;;5043375;28;20024;-63
2023/07/04 07:02:24;;;;;;;10.35;3.00;;;;;;;;;;5034711;28;20030;-64
2023/07/04 07:04:49;;;;;;;9.45;2.95;;;;;;;;;;5040680;28;20503;-61
2023/07/04 07:07:14;;;;;;;9.38;3.20;;;;;;;;;;5045521;28;20033;-62
2023/07/04 07:09:41;;;;;;;8.67;3.50;;;;;;;;;;5051188;28;20361;-63
2023/07/04 07:12:06;;;;;;;9.25;3.00;;;;;;;;;;5049723;28;20540;-63
2023/07/04 07:14:32;;;;;;;8.52;3.00;;;;;;;;;;5050601;28;20029;-63
2023/07/04 07:16:57;;;;;;;8.07;3.00;;;;;;;;;;5048133;28;20024;-63
2023/07/04 07:19:23;;;;;;;7.50;2.50;;;;;;;;;;5044887;28;20075;-62
2023/07/04 07:21:48;;;;;;;7.80;2.65;;;;;;;;;;5050464;28;20020;-61
2023/07/04 07:24:13;;;;;;;8.45;2.58;;;;;;;;;;5050250;28;20083;-62
2023/07/04 07:26:39;;;;;;;6.53;2.65;;;;;;;;;;5049586;28;20025;-62
2023/07/04 07:29:04;;;;;;;7.20;2.50;;;;;;;;;;5042383;28;20033;-63
2023/07/04 07:31:29;;;;;;;8.90;2.92;;;;;;;;;;5031374;28;20046;-64
2023/07/04 07:33:54;;;;;;;8.27;2.50;;;;;;;;;;5052892;28;20021;-63
2023/07/04 07:36:28;;;;;;;7.97;2.80;;;;;;;;;;5054309;28;20048;-64
2023/07/04 07:38:54;;;;;;;6.68;2.60;;;;;;;;;;5054010;28;20155;-64
2023/07/04 07:41:21;;;;;;;7.25;3.20;;;;;;;;;;5052846;28;20370;-62
2023/07/04 07:43:46;;;;;;;9.55;2.55;;;;;;;;;;5052609;28;20678;-62
2023/07/04 07:46:13;;;;;;;8.27;2.63;;;;;;;;;;5051655;28;20143;-63
2023/07/04 07:48:38;;;;;;;6.90;2.40;;;;;;;;;;5053937;28;20507;-62
2023/07/04 07:51:05;;;;;;;8.02;2.40;;;;;;;;;;5048552;28;20009;-62
2023/07/04 07:53:30;;;;;;;8.75;3.00;;;;;;;;;;5057513;28;20630;-64
2023/07/04 07:55:55;;;;;;;6.35;2.40;;;;;;;;;;5056902;28;20061;-64
2023/07/04 07:58:20;;;;;;;6.95;2.70;;;;;;;;;;5057852;28;20039;-62
2023/07/04 08:00:46;;;;;;;5.95;2.45;;;;;;;;;;5056754;28;20055;-63
2023/07/04 08:03:11;;;;;;;9.73;2.93;;;;;;;;;;5057230;28;20025;-61
2023/07/04 08:05:37;;;;;;;6.57;2.63;;;;;;;;;;5040557;28;20041;-63
2023/07/04 08:08:02;;;;;;;8.27;2.70;;;;;;;;;;5033848;28;20432;-65
2023/07/04 08:10:27;;;;;;;6.17;2.40;;;;;;;;;;5035738;28;20382;-63
2023/07/04 08:12:53;;;;;;;8.23;3.05;;;;;;;;;;5052707;28;20033;-62
2023/07/04 08:15:18;;;;;;;7.38;2.50;;;;;;;;;;5053736;28;20025;-62
2023/07/04 08:17:43;;;;;;;7.55;2.50;;;;;;;;;;5053303;28;20029;-62
2023/07/04 08:20:08;;;;;;;7.37;2.90;;;;;;;;;;5043356;28;20400;-63
2023/07/04 08:22:33;;;;;;;7.40;2.60;;;;;;;;;;5048643;28;20025;-65
2023/07/04 08:25:00;;;;;;;7.03;2.80;;;;;;;;;;5044740;28;20520;-63
2023/07/04 08:27:25;;;;;;;5.40;2.35;;;;;;;;;;5049926;28;20024;-62
2023/07/04 08:29:50;;;;;;;7.13;2.45;;;;;;;;;;5041861;28;20025;-62
2023/07/04 08:32:17;;;;;;;8.63;2.70;;;;;;;;;;5034021;28;20031;-64
2023/07/04 08:34:42;;;;;;;6.70;2.53;;;;;;;;;;5044343;28;20104;-64
2023/07/04 08:37:07;;;;;;;6.07;2.77;;;;;;;;;;5042902;28;20116;-63
2023/07/04 08:39:32;;;;;;;8.65;2.70;;;;;;;;;;5037621;28;21487;-63
2023/07/04 08:41:59;;;;;;;6.50;2.70;;;;;;;;;;5047251;28;20020;-62
2023/07/04 08:44:39;;;;;;;8.02;2.28;;;;;;;;;;5043733;28;20025;-63
2023/07/04 08:47:05;;;;;;;6.75;2.50;;;;;;;;;;5045256;28;20025;-64
2023/07/04 08:49:34;;;;;;;6.68;2.78;;;;;;;;;;5047908;28;20388;-63
2023/07/04 08:52:04;;;;;;;6.97;2.63;;;;;;;;;;5038592;28;20017;-63
2023/07/04 08:54:29;;;;;;;8.32;2.92;;;;;;;;;;5047712;28;20041;-63
2023/07/04 08:56:59;;;;;;;9.10;3.00;;;;;;;;;;5041361;28;20075;-62
2023/07/04 08:59:37;;;;;;;6.85;3.00;;;;;;;;;;5042979;28;20404;-62
2023/07/04 09:02:12;;;;;;;5.90;2.55;;;;;;;;;;5040710;28;20035;-63
2023/07/04 09:04:40;;;;;;;8.52;3.10;;;;;;;;;;5045280;28;20025;-63
2023/07/04 09:07:10;;;;;;;6.82;3.30;;;;;;;;;;5041841;28;20519;-61
2023/07/04 09:09:39;;;;;;;6.65;3.00;;;;;;;;;;5044952;28;20106;-63
2023/07/04 09:12:05;;;;;;;8.43;3.10;;;;;;;;;;5043032;28;20017;-62
2023/07/04 09:14:38;;;;;;;5.88;2.85;;;;;;;;;;5048380;28;20435;-62
2023/07/04 09:17:15;;;;;;;6.55;2.67;;;;;;;;;;5040781;28;20025;-63
2023/07/04 09:19:44;;;;;;;8.82;3.28;;;;;;;;;;5050852;28;20043;-63
2023/07/04 09:22:09;;;;;;;5.70;2.85;;;;;;;;;;5051472;28;20025;-63
2023/07/04 09:24:34;;;;;;;7.75;2.67;;;;;;;;;;5050028;28;20043;-62
2023/07/04 09:26:59;;;;;;;7.17;3.00;;;;;;;;;;5050524;28;20060;-63
2023/07/04 09:29:25;;;;;;;7.93;2.90;;;;;;;;;;5051409;28;20025;-62
2023/07/04 09:31:53;;;;;;;7.30;3.15;;;;;;;;;;5052787;28;20076;-62
2023/07/04 09:34:23;;;;;;;7.78;2.90;;;;;;;;;;5052809;28;20013;-63
2023/07/04 09:36:50;;;;;;;6.75;2.75;;;;;;;;;;5044631;28;20018;-63
2023/07/04 09:39:15;;;;;;;6.57;2.97;;;;;;;;;;5052988;28;20035;-63
2023/07/04 09:41:41;;;;;;;6.53;2.88;;;;;;;;;;5042926;28;20088;-62
2023/07/04 09:44:26;;;;;;;6.40;3.00;;;;;;;;;;5059510;28;20024;-62
2023/07/04 09:46:52;;;;;;;6.68;2.63;;;;;;;;;;5054784;28;20032;-61
2023/07/04 09:49:19;;;;;;;9.27;3.10;;;;;;;;;;5046520;28;20047;-62
2023/07/04 09:51:55;;;;;;;8.45;3.05;;;;;;;;;;5039236;28;20025;-61
2023/07/04 09:54:20;;;;;;;6.85;2.92;;;;;;;;;;5049885;28;20021;-63
2023/07/04 09:56:46;;;;;;;7.25;2.97;;;;;;;;;;5042599;28;20416;-64
2023/07/04 09:59:11;;;;;;;7.90;3.00;;;;;;;;;;5051363;28;20032;-62
2023/07/04 10:01:37;;;;;;;7.00;3.33;;;;;;;;;;5051285;28;20435;-64
2023/07/04 10:04:07;;;;;;;6.80;3.20;;;;;;;;;;5050442;28;20029;-63
2023/07/04 10:06:33;;;;;;;7.85;3.50;;;;;;;;;;5050132;28;20021;-62
2023/07/04 10:09:05;;;;;;;6.75;2.97;;;;;;;;;;5034700;28;20017;-64
2023/07/04 10:11:35;;;;;;;6.85;3.45;;;;;;;;;;5051201;28;20116;-62
2023/07/04 10:14:03;;;;;;;6.47;3.47;;;;;;;;;;5050346;28;20017;-63
2023/07/04 10:16:28;;;;;;;7.65;3.28;;;;;;;;;;5049912;28;20055;-63
2023/07/04 10:19:01;;;;;;;6.53;3.53;;;;;;;;;;5050675;28;20020;-61
2023/07/04 10:21:26;;;;;;;7.72;3.33;;;;;;;;;;5051071;28;20484;-63
2023/07/04 10:23:52;;;;;;;8.63;3.25;;;;;;;;;;5050172;28;20052;-62
2023/07/04 10:26:17;;;;;;;8.23;3.70;;;;;;;;;;5048890;28;20393;-61
2023/07/04 10:28:42;;;;;;;7.93;3.70;;;;;;;;;;5050436;28;20021;-64
2023/07/04 10:31:08;;;;;;;;;;;;;;;;;;5047018;28;20029;-63
2023/07/04 10:33:37;;;;;;;8.32;4.28;;;;;;;;;;5049799;28;19916;-64
2023/07/04 10:36:03;;;;;;;9.63;4.32;;;;;;;;;;5044442;28;20078;-66
2023/07/04 10:38:49;;;;;;;8.48;4.50;;;;;;;;;;5050561;28;20067;-63
2023/07/04 10:41:26;;;;;;;10.07;5.45;;;;;;;;;;5050469;28;20013;-64
2023/07/04 10:43:54;;;;;;;11.73;5.00;;;;;;;;;;5046699;28;20023;-64
2023/07/04 10:46:22;;;;;;;9.63;4.90;;;;;;;;;;5045543;28;20025;-62
2023/07/04 10:48:48;;;;;;;10.25;5.55;;;;;;;;;;5050441;28;20033;-63
2023/07/04 10:51:22;;;;;;;9.88;5.45;;;;;;;;;;5050395;28;20033;-61
2023/07/04 10:53:48;;;;;;;10.10;5.60;;;;;;;;;;5048777;28;20013;-64
2023/07/04 10:56:19;;;;;;;8.65;5.00;;;;;;;;;;5043860;28;20052;-63
2023/07/04 10:58:46;;;;;;;9.95;5.43;;;;;;;;;;5046571;28;20029;-62
2023/07/04 11:01:15;;;;;;;10.20;5.50;;;;;;;;;;5041326;28;20112;-63
2023/07/04 11:04:04;;;;;;;10.13;5.63;;;;;;;;;;5044984;28;20032;-63
2023/07/04 11:06:37;;;;;;;9.65;5.53;;;;;;;;;;5042734;28;20032;-62
2023/07/04 11:09:05;;;;;;;9.43;5.40;;;;;;;;;;5046929;28;20021;-63
2023/07/04 11:11:31;;;;;;;10.30;5.85;;;;;;;;;;5054424;28;20058;-64
2023/07/04 11:13:57;;;;;;;;;;;;;;;;;;5053851;28;20017;-62
2023/07/04 11:16:26;;;;;;;11.13;6.15;;;;;;;;;;5053000;28;20503;-64
2023/07/04 11:18:58;;;;;;;12.23;6.25;;;;;;;;;;5044100;28;20028;-63
2023/07/04 11:21:25;;;;;;;11.10;5.65;;;;;;;;;;5043510;28;20032;-63
2023/07/04 11:23:53;;;;;;;10.25;6.38;;;;;;;;;;5041710;28;20040;-62
2023/07/04 11:26:19;;;;;;;10.57;6.30;;;;;;;;;;5047527;28;20549;-63
2023/07/04 11:28:46;;;;;;;10.27;6.75;;;;;;;;;;5051384;28;20025;-61
2023/07/04 11:31:11;;;;;;;12.23;6.85;;;;;;;;;;5034305;28;20380;-62
2023/07/04 11:33:42;;;;;;;10.38;6.43;;;;;;;;;;5029882;28;20030;-64
2023/07/04 11:36:27;;;;;;;11.50;6.90;;;;;;;;;;5030282;28;20095;-62
2023/07/04 11:38:56;;;;;;;12.00;7.20;;;;;;;;;;5046048;28;20041;-61
2023/07/04 11:41:26;;;;;;;11.35;7.05;;;;;;;;;;5039432;28;20061;-61
2023/07/04 11:43:51;;;;;;;11.77;7.28;;;;;;;;;;5029373;28;20029;-63
2023/07/04 11:46:20;;;;;;;13.40;7.83;;;;;;;;;;5031568;28;20627;-63
2023/07/04 11:48:48;;;;;;;14.70;8.05;;;;;;;;;;5040428;28;20512;-63
2023/07/04 11:51:14;;;;;;;13.32;7.43;;;;;;;;;;5044099;28;20022;-63
2023/07/04 11:53:45;;;;;;;13.57;7.75;;;;;;;;;;5037807;28;20032;-62
2023/07/04 11:56:14;;;;;;;12.07;7.30;;;;;;;;;;5048028;28;20521;-63
2023/07/04 11:58:39;;;;;;;13.05;7.93;;;;;;;;;;5042857;28;20512;-62
2023/07/04 12:01:04;;;;;;;14.73;8.43;;;;;;;;;;5049406;28;20028;-64
2023/07/04 12:03:29;;;;;;;;;;;;;;;;;;5047123;28;20093;-62
2023/07/04 12:05:56;;;;;;;13.55;8.57;;;;;;;;;;5049154;28;20284;-62
2023/07/04 12:08:24;;;;;;;13.52;7.22;;;;;;;;;;5040396;28;20484;-63
2023/07/04 12:10:49;;;;;;;12.90;7.57;;;;;;;;;;5043786;28;20104;-62
2023/07/04 12:13:18;;;;;;;11.45;7.55;;;;;;;;;;5062003;28;20060;-69
2023/07/04 12:15:45;;;;;;;11.43;7.95;;;;;;;;;;5058910;28;20020;-61
2023/07/04 12:18:15;;;;;;;12.30;7.72;;;;;;;;;;5043722;28;20016;-62
2023/07/04 12:20:41;;;;;;;13.63;8.15;;;;;;;;;;5046609;28;20031;-62
2023/07/04 12:23:09;;;;;;;15.15;8.60;;;;;;;;;;5030782;28;20017;-62
2023/07/04 12:25:35;;;;;;;15.07;8.85;;;;;;;;;;5033811;28;20032;-62
2023/07/04 12:28:03;;;;;;;14.65;8.70;;;;;;;;;;5043801;28;20029;-65
2023/07/04 12:30:28;;;;;;;14.98;8.82;;;;;;;;;;5048015;28;20047;-64
2023/07/04 12:32:53;;;;;;;15.77;10.00;;;;;;;;;;5043954;28;20016;-62
2023/07/04 12:35:19;;;;;;;;;;;;;;;;;;5043313;28;20028;-65
2023/07/04 12:37:45;;;;;;;16.93;9.77;;;;;;;;;;5042893;28;19913;-64
2023/07/04 12:40:15;;;;;;;14.68;9.50;;;;;;;;;;5041901;28;20543;-63
2023/07/04 12:42:43;;;;;;;16.02;9.60;;;;;;;;;;5049280;28;20032;-62
2023/07/04 12:45:09;;;;;;;14.45;8.98;;;;;;;;;;5052099;28;20017;-63
2023/07/04 12:47:35;;;;;;;15.38;8.10;;;;;;;;;;5052149;28;20071;-62
2023/07/04 12:50:01;;;;;;;14.68;9.00;;;;;;;;;;5042981;28;20031;-65
2023/07/04 12:52:31;;;;;;;14.60;9.20;;;;;;;;;;5051030;28;20108;-62
2023/07/04 12:54:57;;;;;;;14.00;9.02;;;;;;;;;;5051317;28;20057;-63
2023/07/04 12:57:25;;;;;;;15.00;9.03;;;;;;;;;;4974190;28;2197776;-62
2023/07/04 12:59:50;;;;;;;13.25;9.25;;;;;;;;;;5041092;28;20535;-63
2023/07/04 13:02:22;;;;;;;16.60;11.02;;;;;;;;;;5049586;28;20025;-64
2023/07/04 13:04:47;;;;;;;17.63;10.90;;;;;;;;;;5050741;28;20024;-64
2023/07/04 13:07:12;;;;;;;;;;;;;;;;;;5052607;28;20029;-63
2023/07/04 13:09:41;;;;;;;18.08;11.75;;;;;;;;;;5039368;28;19916;-63
2023/07/04 13:12:06;;;;;;;15.13;9.82;;;;;;;;;;5048301;28;20017;-63
2023/07/04 13:14:31;;;;;;;;;;;;;;;;;;5049170;28;20475;-63
2023/07/04 13:17:06;;;;;;;19.25;10.73;;;;;;;;;;5045056;28;19904;-63
2023/07/04 13:19:33;;;;;;;17.15;10.82;;;;;;;;;;5051194;28;20029;-62
2023/07/04 13:22:10;;;;;;;18.52;11.35;;;;;;;;;;5051925;28;20024;-64
2023/07/04 13:24:36;;;;;;;18.13;11.77;;;;;;;;;;5052545;28;20029;-65
2023/07/04 13:27:01;;;;;;;;;;;;;;;;;;5053087;28;20027;-63
2023/07/04 13:29:27;;;;;;;16.75;10.60;;;;;;;;;;5059638;28;19905;-64
2023/07/04 13:31:52;;;;;;;;;;;;;;;;;;5050698;28;20455;-63
2023/07/04 13:34:17;;;;;;;15.20;10.25;;;;;;;;;;5051698;28;19928;-61
2023/07/04 13:36:42;;;;;;;;;;;;;;;;;;5051065;28;20021;-64
2023/07/04 13:39:09;;;;;;;15.27;9.55;;;;;;;;;;5056682;28;19905;-63
2023/07/04 13:41:35;;;;;;;15.50;10.32;;;;;;;;;;5051363;28;20017;-64
2023/07/04 13:44:00;;;;;;;;;;;;;;;;;;5051826;28;20016;-63
2023/07/04 13:46:25;;;;;;;16.80;10.52;;;;;;;;;;5044277;28;19971;-63
2023/07/04 13:48:50;;;;;;;;;;;;;;;;;;5053363;28;20017;-64
2023/07/04 13:51:19;;;;;;;15.95;11.13;;;;;;;;;;5052460;28;19926;-63
2023/07/04 13:53:44;;;;;;;16.25;11.32;;;;;;;;;;5048848;28;20388;-65
2023/07/04 13:56:09;;;;;;;;;;;;;;;;;;5051476;28;20029;-64
2023/07/04 13:58:35;;;;;;;14.07;10.05;;;;;;;;;;5049032;28;19913;-64
2023/07/04 14:01:00;;;;;;;;;;;;;;;;;;5053476;28;20017;-64
2023/07/04 14:03:25;;;;;;;15.65;10.05;;;;;;;;;;5042966;28;19905;-63
2023/07/04 14:05:50;;;;;;;;;;;;;;;;;;5050254;28;20476;-64
2023/07/04 14:08:15;;;;;;;20.05;11.45;;;;;;;;;;5048632;28;19912;-63
2023/07/04 14:10:40;;;;;;;;;;;;;;;;;;5046537;28;20580;-64
2023/07/04 14:13:06;;;;;;;16.88;10.52;;;;;;;;;;5050335;28;19908;-62
2023/07/04 14:15:31;;;;;;;;;;;;;;;;;;5044798;28;20147;-63
2023/07/04 14:17:57;;;;;;;17.02;10.13;;;;;;;;;;5050580;28;19909;-63
2023/07/04 14:20:22;;;;;;;;;;;;;;;;;;5050299;28;20126;-63
2023/07/04 14:22:47;;;;;;;16.88;10.90;;;;;;;;;;5046526;28;19909;-64
2023/07/04 14:25:12;;;;;;;;;;;;;;;;;;5051008;28;20484;-62
2023/07/04 14:27:37;;;;;;;17.08;10.57;;;;;;;;;;5051115;28;19905;-63
2023/07/04 14:30:02;;;;;;;;;;;;;;;;;;5051560;28;20415;-64
2023/07/04 14:32:27;;;;;;;16.92;10.32;;;;;;;;;;5048682;28;19945;-63
2023/07/04 14:34:53;;;;;;;15.70;10.97;;;;;;;;;;5053348;28;20051;-65
2023/07/04 14:37:18;;;;;;;;;;;;;;;;;;5053578;28;20368;-63
2023/07/04 14:39:48;;;;;;;17.92;11.77;;;;;;;;;;5054002;28;20394;-64
2023/07/04 14:42:13;;;;;;;15.75;10.43;;;;;;;;;;5053497;28;20167;-63